Hermosillo, México

12:57 PM MST en Octubre 31, 2014 (GMT -0700)
Gen Ignacio Pesqueira Garcia | Change Station
CLOSE
Current Station
Aeropuerto
Location: Hermosillo,
Altura: 627 ft
Estaciones meteorológicas cercanas

Alt 627 ft 29.09 °N, 111.05 °W | Updated 1 hour ago

Overcast
Nublado
84 ° F
Sensación térmica 84 ° F
N
0
Viento Variable Viento desde Norte

Hoy
Alta -- | Baja -- ° F
--% Posibilidad de precipitaciones
Ayer
Alta -- | Baja -- ° F
Precip. -- pul
6:36 AM 5:39 PM
Cuarto creciente, 58% visible
Presión 29.92 pul
Visibilidad 10.0 Millas
Nubes Muy nublado 8000 ft
Nublado 20000 ft
Índice de calor 84 ° F
Punto de rocío 57 ° F
Humedad 40%
Precipitaciones 0.00 pul
Espesor de la nieve No disponible.
UV 2 de una escala de 12
Polen No disponible.
Calidad del aire No disponible.
Flu Activity No disponible.
METAR MMHO 311843Z 00000KT 10SM BKN080 OVC200 29/14 A2992 RMK 8/037 HZY

More Conditions Fewer Conditions

Presión 29.92 pul
Visibilidad 10.0 Millas
Nubes Muy nublado 8000 ft
Nublado 20000 ft
Índice de calor 84 ° F
Punto de rocío 57 ° F
Humedad 40%
Precipitaciones 0.00 pul
Espesor de la nieve No disponible.
UV 2 de una escala de 12
Polen No disponible.
Calidad del aire No disponible.
Flu Activity No disponible.
METAR MMHO 311843Z 00000KT 10SM BKN080 OVC200 29/14 A2992 RMK 8/037 HZY

More Conditions Fewer Conditions

10-Day Weather Forecast

Almanac

Astronomía

Oct. 31, 2014 Salida Puesta
Hora real
Crepúsculo civil
Crepúsculo náutico
Crepúsculo astronómico
Luna
Horas de luz
Horas de luz
Tomorrow will be .
, % of the Moon is Illuminated

Extremos de hoy

Máximos del país Bajas del país

Community

WunderPhotos

Upload Photos

1,766,711 ¡fotos cargadas!

WunderBlogs® & News

Nearby

Calidad del aire

  Calidad del aire Índice AQ Contaminante
Not available.

Grosos de nieve

Estación Profundido Altura

Actividad de terremotos

Ciudad Distance Mag. Tiempo y dato
Magnitud mínima muestra es 2,5.

Temperaturas de aguas costeras

Lugar Temperatura

Estaciones meteorológicas cercanas